sensor_id;sensor_type;location;lat;lon;timestamp;P1;durP1;ratioP1;P2;durP2;ratioP2
53411;SDS011;39307;52.870;13.660;2022-10-16T00:00:37;7.30;;;3.90;;
53411;SDS011;39307;52.870;13.660;2022-10-16T00:03:05;6.35;;;3.70;;
53411;SDS011;39307;52.870;13.660;2022-10-16T00:05:33;5.47;;;3.50;;
53411;SDS011;39307;52.870;13.660;2022-10-16T00:08:08;5.03;;;3.25;;
53411;SDS011;39307;52.870;13.660;2022-10-16T00:10:35;5.45;;;3.00;;
53411;SDS011;39307;52.870;13.660;2022-10-16T00:13:01;6.47;;;3.58;;
53411;SDS011;39307;52.870;13.660;2022-10-16T00:15:28;6.40;;;3.70;;
53411;SDS011;39307;52.870;13.660;2022-10-16T00:17:54;6.28;;;3.38;;
53411;SDS011;39307;52.870;13.660;2022-10-16T00:20:20;5.85;;;3.70;;
53411;SDS011;39307;52.870;13.660;2022-10-16T00:22:47;6.40;;;3.20;;
53411;SDS011;39307;52.870;13.660;2022-10-16T00:25:13;6.53;;;3.60;;
53411;SDS011;39307;52.870;13.660;2022-10-16T00:27:39;7.40;;;3.60;;
53411;SDS011;39307;52.870;13.660;2022-10-16T00:30:05;6.03;;;3.50;;
53411;SDS011;39307;52.870;13.660;2022-10-16T00:32:32;8.05;;;3.65;;
53411;SDS011;39307;52.870;13.660;2022-10-16T00:34:58;7.85;;;3.50;;
53411;SDS011;39307;52.870;13.660;2022-10-16T00:37:25;5.77;;;3.57;;
53411;SDS011;39307;52.870;13.660;2022-10-16T00:39:51;6.27;;;3.50;;
53411;SDS011;39307;52.870;13.660;2022-10-16T00:42:17;6.28;;;3.63;;
53411;SDS011;39307;52.870;13.660;2022-10-16T00:44:46;6.93;;;3.63;;
53411;SDS011;39307;52.870;13.660;2022-10-16T00:47:24;5.75;;;3.50;;
53411;SDS011;39307;52.870;13.660;2022-10-16T00:50:08;7.22;;;3.50;;
53411;SDS011;39307;52.870;13.660;2022-10-16T00:52:43;5.18;;;3.50;;
53411;SDS011;39307;52.870;13.660;2022-10-16T00:55:12;7.68;;;3.58;;
53411;SDS011;39307;52.870;13.660;2022-10-16T00:57:38;7.43;;;3.50;;
53411;SDS011;39307;52.870;13.660;2022-10-16T01:00:06;5.97;;;2.92;;
53411;SDS011;39307;52.870;13.660;2022-10-16T01:02:34;7.00;;;3.33;;
53411;SDS011;39307;52.870;13.660;2022-10-16T01:05:00;5.00;;;3.20;;
53411;SDS011;39307;52.870;13.660;2022-10-16T01:10:45;4.93;;;3.10;;
53411;SDS011;39307;52.870;13.660;2022-10-16T01:13:38;5.03;;;2.80;;
53411;SDS011;39307;52.870;13.660;2022-10-16T01:18:54;6.60;;;2.97;;
53411;SDS011;39307;52.870;13.660;2022-10-16T01:21:33;6.45;;;2.83;;
53411;SDS011;39307;52.870;13.660;2022-10-16T01:24:15;6.00;;;2.67;;
53411;SDS011;39307;52.870;13.660;2022-10-16T01:29:53;4.32;;;2.47;;
53411;SDS011;39307;52.870;13.660;2022-10-16T01:35:25;4.55;;;2.60;;
53411;SDS011;39307;52.870;13.660;2022-10-16T01:40:37;5.13;;;2.30;;
53411;SDS011;39307;52.870;13.660;2022-10-16T01:43:12;4.60;;;2.65;;
53411;SDS011;39307;52.870;13.660;2022-10-16T01:45:53;5.90;;;2.43;;
53411;SDS011;39307;52.870;13.660;2022-10-16T01:48:20;3.95;;;2.30;;
53411;SDS011;39307;52.870;13.660;2022-10-16T01:51:22;5.60;;;2.67;;
53411;SDS011;39307;52.870;13.660;2022-10-16T01:53:43;5.22;;;2.38;;
53411;SDS011;39307;52.870;13.660;2022-10-16T01:56:13;4.13;;;2.33;;
53411;SDS011;39307;52.870;13.660;2022-10-16T01:58:47;4.87;;;2.30;;
53411;SDS011;39307;52.870;13.660;2022-10-16T02:01:20;4.05;;;2.05;;
53411;SDS011;39307;52.870;13.660;2022-10-16T02:03:49;3.67;;;2.10;;
53411;SDS011;39307;52.870;13.660;2022-10-16T02:06:21;5.43;;;2.10;;
53411;SDS011;39307;52.870;13.660;2022-10-16T02:08:48;5.18;;;2.30;;
53411;SDS011;39307;52.870;13.660;2022-10-16T02:11:14;4.55;;;2.30;;
53411;SDS011;39307;52.870;13.660;2022-10-16T02:13:45;4.07;;;2.15;;
53411;SDS011;39307;52.870;13.660;2022-10-16T02:16:19;3.80;;;2.10;;
53411;SDS011;39307;52.870;13.660;2022-10-16T02:18:45;4.82;;;2.20;;
53411;SDS011;39307;52.870;13.660;2022-10-16T02:21:28;4.03;;;2.15;;
53411;SDS011;39307;52.870;13.660;2022-10-16T02:27:05;4.53;;;2.03;;
53411;SDS011;39307;52.870;13.660;2022-10-16T02:29:40;4.07;;;2.17;;
53411;SDS011;39307;52.870;13.660;2022-10-16T02:32:12;6.82;;;2.05;;
53411;SDS011;39307;52.870;13.660;2022-10-16T02:34:46;3.55;;;1.65;;
53411;SDS011;39307;52.870;13.660;2022-10-16T02:37:14;5.18;;;2.00;;
53411;SDS011;39307;52.870;13.660;2022-10-16T02:39:43;5.70;;;1.80;;
53411;SDS011;39307;52.870;13.660;2022-10-16T02:42:11;5.10;;;1.80;;
53411;SDS011;39307;52.870;13.660;2022-10-16T02:44:38;3.30;;;1.65;;
53411;SDS011;39307;52.870;13.660;2022-10-16T02:47:05;5.05;;;1.88;;
53411;SDS011;39307;52.870;13.660;2022-10-16T02:49:31;4.17;;;1.80;;
53411;SDS011;39307;52.870;13.660;2022-10-16T02:51:57;3.37;;;1.70;;
53411;SDS011;39307;52.870;13.660;2022-10-16T02:54:24;4.90;;;1.90;;
53411;SDS011;39307;52.870;13.660;2022-10-16T02:56:50;3.85;;;1.77;;
53411;SDS011;39307;52.870;13.660;2022-10-16T02:59:16;5.07;;;1.73;;
53411;SDS011;39307;52.870;13.660;2022-10-16T03:01:42;5.00;;;1.90;;
53411;SDS011;39307;52.870;13.660;2022-10-16T03:04:08;3.72;;;1.58;;
53411;SDS011;39307;52.870;13.660;2022-10-16T03:06:35;3.95;;;1.67;;
53411;SDS011;39307;52.870;13.660;2022-10-16T03:09:01;6.18;;;1.70;;
53411;SDS011;39307;52.870;13.660;2022-10-16T03:11:27;3.67;;;1.63;;
53411;SDS011;39307;52.870;13.660;2022-10-16T03:13:53;5.22;;;1.70;;
53411;SDS011;39307;52.870;13.660;2022-10-16T03:16:19;2.95;;;1.67;;
53411;SDS011;39307;52.870;13.660;2022-10-16T03:18:49;3.83;;;1.45;;
53411;SDS011;39307;52.870;13.660;2022-10-16T03:21:15;4.60;;;1.70;;
53411;SDS011;39307;52.870;13.660;2022-10-16T03:23:42;3.05;;;1.60;;
53411;SDS011;39307;52.870;13.660;2022-10-16T03:26:08;3.28;;;1.52;;
53411;SDS011;39307;52.870;13.660;2022-10-16T03:28:34;3.42;;;1.70;;
53411;SDS011;39307;52.870;13.660;2022-10-16T03:31:00;3.92;;;1.67;;
53411;SDS011;39307;52.870;13.660;2022-10-16T03:33:26;2.92;;;1.52;;
53411;SDS011;39307;52.870;13.660;2022-10-16T03:35:53;3.92;;;1.60;;
53411;SDS011;39307;52.870;13.660;2022-10-16T03:38:20;2.80;;;1.50;;
53411;SDS011;39307;52.870;13.660;2022-10-16T03:40:46;5.60;;;1.70;;
53411;SDS011;39307;52.870;13.660;2022-10-16T03:43:13;4.68;;;1.63;;
53411;SDS011;39307;52.870;13.660;2022-10-16T03:45:39;4.07;;;1.60;;
53411;SDS011;39307;52.870;13.660;2022-10-16T03:48:05;2.83;;;1.50;;
53411;SDS011;39307;52.870;13.660;2022-10-16T03:50:31;4.28;;;1.60;;
53411;SDS011;39307;52.870;13.660;2022-10-16T03:52:58;3.83;;;1.58;;
53411;SDS011;39307;52.870;13.660;2022-10-16T03:55:24;2.60;;;1.42;;
53411;SDS011;39307;52.870;13.660;2022-10-16T03:57:50;4.72;;;1.60;;
53411;SDS011;39307;52.870;13.660;2022-10-16T04:00:17;3.37;;;1.60;;
53411;SDS011;39307;52.870;13.660;2022-10-16T04:02:43;4.57;;;1.90;;
53411;SDS011;39307;52.870;13.660;2022-10-16T04:05:09;3.60;;;1.73;;
53411;SDS011;39307;52.870;13.660;2022-10-16T04:07:35;4.32;;;1.70;;
53411;SDS011;39307;52.870;13.660;2022-10-16T04:10:02;4.90;;;1.83;;
53411;SDS011;39307;52.870;13.660;2022-10-16T04:12:28;5.35;;;2.00;;
53411;SDS011;39307;52.870;13.660;2022-10-16T04:14:54;6.15;;;1.90;;
53411;SDS011;39307;52.870;13.660;2022-10-16T04:17:21;5.68;;;2.30;;
53411;SDS011;39307;52.870;13.660;2022-10-16T04:19:47;6.05;;;2.20;;
53411;SDS011;39307;52.870;13.660;2022-10-16T04:22:14;5.13;;;2.10;;
53411;SDS011;39307;52.870;13.660;2022-10-16T04:24:40;5.82;;;2.05;;
53411;SDS011;39307;52.870;13.660;2022-10-16T04:27:06;4.75;;;1.83;;
53411;SDS011;39307;52.870;13.660;2022-10-16T04:29:34;5.55;;;2.10;;
53411;SDS011;39307;52.870;13.660;2022-10-16T04:32:00;7.50;;;2.33;;
53411;SDS011;39307;52.870;13.660;2022-10-16T04:34:26;5.90;;;2.28;;
53411;SDS011;39307;52.870;13.660;2022-10-16T04:36:52;5.43;;;2.17;;
53411;SDS011;39307;52.870;13.660;2022-10-16T04:39:19;6.43;;;2.50;;
53411;SDS011;39307;52.870;13.660;2022-10-16T04:41:45;6.90;;;2.30;;
53411;SDS011;39307;52.870;13.660;2022-10-16T04:44:11;4.88;;;2.28;;
53411;SDS011;39307;52.870;13.660;2022-10-16T04:46:37;5.47;;;2.05;;
53411;SDS011;39307;52.870;13.660;2022-10-16T04:49:04;6.43;;;2.50;;
53411;SDS011;39307;52.870;13.660;2022-10-16T04:51:30;5.90;;;2.30;;
53411;SDS011;39307;52.870;13.660;2022-10-16T04:53:56;4.68;;;2.10;;
53411;SDS011;39307;52.870;13.660;2022-10-16T04:56:22;5.25;;;2.10;;
53411;SDS011;39307;52.870;13.660;2022-10-16T04:58:48;4.25;;;1.90;;
53411;SDS011;39307;52.870;13.660;2022-10-16T05:01:15;5.38;;;2.33;;
53411;SDS011;39307;52.870;13.660;2022-10-16T05:03:41;6.18;;;2.35;;
53411;SDS011;39307;52.870;13.660;2022-10-16T05:06:07;5.05;;;2.35;;
53411;SDS011;39307;52.870;13.660;2022-10-16T05:08:33;5.82;;;2.30;;
53411;SDS011;39307;52.870;13.660;2022-10-16T05:10:59;6.07;;;2.50;;
53411;SDS011;39307;52.870;13.660;2022-10-16T05:13:26;5.95;;;2.20;;
53411;SDS011;39307;52.870;13.660;2022-10-16T05:15:52;6.82;;;2.00;;
53411;SDS011;39307;52.870;13.660;2022-10-16T05:18:18;6.97;;;2.10;;
53411;SDS011;39307;52.870;13.660;2022-10-16T05:20:44;6.32;;;2.35;;
53411;SDS011;39307;52.870;13.660;2022-10-16T05:23:11;49.80;;;30.40;;
53411;SDS011;39307;52.870;13.660;2022-10-16T05:25:37;22.60;;;14.88;;
53411;SDS011;39307;52.870;13.660;2022-10-16T05:28:03;25.15;;;14.48;;
53411;SDS011;39307;52.870;13.660;2022-10-16T05:30:29;33.50;;;21.35;;
53411;SDS011;39307;52.870;13.660;2022-10-16T05:32:55;44.60;;;28.70;;
53411;SDS011;39307;52.870;13.660;2022-10-16T05:35:22;23.03;;;14.37;;
53411;SDS011;39307;52.870;13.660;2022-10-16T05:37:48;16.13;;;9.80;;
53411;SDS011;39307;52.870;13.660;2022-10-16T05:40:14;10.70;;;5.28;;
53411;SDS011;39307;52.870;13.660;2022-10-16T05:42:40;8.10;;;4.00;;
53411;SDS011;39307;52.870;13.660;2022-10-16T05:45:07;4.65;;;2.30;;
53411;SDS011;39307;52.870;13.660;2022-10-16T05:47:35;5.90;;;2.30;;
53411;SDS011;39307;52.870;13.660;2022-10-16T05:50:02;4.00;;;1.83;;
53411;SDS011;39307;52.870;13.660;2022-10-16T05:52:28;6.00;;;1.90;;
53411;SDS011;39307;52.870;13.660;2022-10-16T05:54:54;4.15;;;1.70;;
53411;SDS011;39307;52.870;13.660;2022-10-16T05:57:21;5.72;;;1.90;;
53411;SDS011;39307;52.870;13.660;2022-10-16T05:59:47;4.65;;;1.83;;
53411;SDS011;39307;52.870;13.660;2022-10-16T06:02:13;4.38;;;1.70;;
53411;SDS011;39307;52.870;13.660;2022-10-16T06:04:39;5.82;;;1.88;;
53411;SDS011;39307;52.870;13.660;2022-10-16T06:07:06;4.97;;;1.80;;
53411;SDS011;39307;52.870;13.660;2022-10-16T06:09:32;6.82;;;3.20;;
53411;SDS011;39307;52.870;13.660;2022-10-16T06:11:58;13.10;;;7.50;;
53411;SDS011;39307;52.870;13.660;2022-10-16T06:14:24;11.50;;;8.50;;
53411;SDS011;39307;52.870;13.660;2022-10-16T06:16:50;13.85;;;9.10;;
53411;SDS011;39307;52.870;13.660;2022-10-16T06:19:16;15.52;;;10.95;;
53411;SDS011;39307;52.870;13.660;2022-10-16T06:21:42;15.10;;;9.68;;
53411;SDS011;39307;52.870;13.660;2022-10-16T06:24:09;13.77;;;8.60;;
53411;SDS011;39307;52.870;13.660;2022-10-16T06:26:35;12.65;;;7.70;;
53411;SDS011;39307;52.870;13.660;2022-10-16T06:29:02;9.13;;;5.43;;
53411;SDS011;39307;52.870;13.660;2022-10-16T06:31:29;7.80;;;4.47;;
53411;SDS011;39307;52.870;13.660;2022-10-16T06:33:55;7.68;;;4.50;;
53411;SDS011;39307;52.870;13.660;2022-10-16T06:36:23;8.57;;;4.85;;
53411;SDS011;39307;52.870;13.660;2022-10-16T06:38:49;9.50;;;5.47;;
53411;SDS011;39307;52.870;13.660;2022-10-16T06:41:17;8.55;;;5.10;;
53411;SDS011;39307;52.870;13.660;2022-10-16T06:43:44;7.30;;;4.75;;
53411;SDS011;39307;52.870;13.660;2022-10-16T06:46:11;8.70;;;4.47;;
53411;SDS011;39307;52.870;13.660;2022-10-16T06:48:38;8.52;;;3.58;;
53411;SDS011;39307;52.870;13.660;2022-10-16T06:51:06;7.57;;;2.95;;
53411;SDS011;39307;52.870;13.660;2022-10-16T06:53:36;5.88;;;2.20;;
53411;SDS011;39307;52.870;13.660;2022-10-16T06:56:11;5.78;;;2.70;;
53411;SDS011;39307;52.870;13.660;2022-10-16T06:58:42;9.60;;;2.70;;
53411;SDS011;39307;52.870;13.660;2022-10-16T07:01:09;5.13;;;2.20;;
53411;SDS011;39307;52.870;13.660;2022-10-16T07:03:37;5.55;;;1.92;;
53411;SDS011;39307;52.870;13.660;2022-10-16T07:06:04;3.47;;;1.70;;
53411;SDS011;39307;52.870;13.660;2022-10-16T07:08:32;7.53;;;3.53;;
53411;SDS011;39307;52.870;13.660;2022-10-16T07:11:04;11.07;;;5.55;;
53411;SDS011;39307;52.870;13.660;2022-10-16T07:13:35;11.82;;;6.18;;
53411;SDS011;39307;52.870;13.660;2022-10-16T07:16:08;13.35;;;7.20;;
53411;SDS011;39307;52.870;13.660;2022-10-16T07:18:37;13.27;;;7.53;;
53411;SDS011;39307;52.870;13.660;2022-10-16T07:21:08;10.85;;;6.63;;
53411;SDS011;39307;52.870;13.660;2022-10-16T07:23:36;12.32;;;7.53;;
53411;SDS011;39307;52.870;13.660;2022-10-16T07:26:03;11.50;;;7.63;;
53411;SDS011;39307;52.870;13.660;2022-10-16T07:28:30;8.93;;;5.32;;
53411;SDS011;39307;52.870;13.660;2022-10-16T07:30:59;7.15;;;3.90;;
53411;SDS011;39307;52.870;13.660;2022-10-16T07:33:31;9.23;;;6.00;;
53411;SDS011;39307;52.870;13.660;2022-10-16T07:35:58;24.13;;;11.65;;
53411;SDS011;39307;52.870;13.660;2022-10-16T07:38:24;14.82;;;8.45;;
53411;SDS011;39307;52.870;13.660;2022-10-16T07:40:58;7.28;;;3.40;;
53411;SDS011;39307;52.870;13.660;2022-10-16T07:43:31;6.17;;;3.07;;
53411;SDS011;39307;52.870;13.660;2022-10-16T07:45:58;11.73;;;4.80;;
53411;SDS011;39307;52.870;13.660;2022-10-16T07:48:26;9.43;;;4.65;;
53411;SDS011;39307;52.870;13.660;2022-10-16T07:50:59;9.88;;;4.90;;
53411;SDS011;39307;52.870;13.660;2022-10-16T07:53:26;8.77;;;4.32;;
53411;SDS011;39307;52.870;13.660;2022-10-16T07:55:57;8.07;;;4.07;;
53411;SDS011;39307;52.870;13.660;2022-10-16T07:58:28;62.60;;;28.38;;
53411;SDS011;39307;52.870;13.660;2022-10-16T08:00:54;51.87;;;23.93;;
53411;SDS011;39307;52.870;13.660;2022-10-16T08:03:21;18.88;;;9.25;;
53411;SDS011;39307;52.870;13.660;2022-10-16T08:05:47;8.45;;;4.10;;
53411;SDS011;39307;52.870;13.660;2022-10-16T08:08:14;7.40;;;4.00;;
53411;SDS011;39307;52.870;13.660;2022-10-16T08:10:41;11.60;;;6.38;;
53411;SDS011;39307;52.870;13.660;2022-10-16T08:13:07;8.48;;;5.97;;
53411;SDS011;39307;52.870;13.660;2022-10-16T08:15:33;8.35;;;4.70;;
53411;SDS011;39307;52.870;13.660;2022-10-16T08:18:03;6.70;;;4.10;;
53411;SDS011;39307;52.870;13.660;2022-10-16T08:20:30;7.20;;;4.20;;
53411;SDS011;39307;52.870;13.660;2022-10-16T08:23:01;7.32;;;4.57;;
53411;SDS011;39307;52.870;13.660;2022-10-16T08:25:28;11.20;;;6.22;;
53411;SDS011;39307;52.870;13.660;2022-10-16T08:27:54;11.65;;;6.25;;
53411;SDS011;39307;52.870;13.660;2022-10-16T08:30:21;13.40;;;6.85;;
53411;SDS011;39307;52.870;13.660;2022-10-16T08:32:49;14.98;;;7.13;;
53411;SDS011;39307;52.870;13.660;2022-10-16T08:35:15;21.23;;;11.95;;
53411;SDS011;39307;52.870;13.660;2022-10-16T08:37:41;13.07;;;6.93;;
53411;SDS011;39307;52.870;13.660;2022-10-16T08:40:27;10.07;;;6.38;;
53411;SDS011;39307;52.870;13.660;2022-10-16T08:48:27;10.87;;;4.53;;
53411;SDS011;39307;52.870;13.660;2022-10-16T08:51:11;6.05;;;2.88;;
53411;SDS011;39307;52.870;13.660;2022-10-16T08:53:57;6.80;;;3.40;;
53411;SDS011;39307;52.870;13.660;2022-10-16T08:56:27;8.88;;;4.15;;
53411;SDS011;39307;52.870;13.660;2022-10-16T08:58:53;6.00;;;3.20;;
53411;SDS011;39307;52.870;13.660;2022-10-16T09:01:24;4.72;;;2.30;;
53411;SDS011;39307;52.870;13.660;2022-10-16T09:06:47;10.00;;;4.13;;
53411;SDS011;39307;52.870;13.660;2022-10-16T09:12:13;13.60;;;5.82;;
53411;SDS011;39307;52.870;13.660;2022-10-16T09:14:52;9.65;;;4.50;;
53411;SDS011;39307;52.870;13.660;2022-10-16T09:17:27;6.70;;;2.50;;
53411;SDS011;39307;52.870;13.660;2022-10-16T09:22:46;7.10;;;1.93;;
53411;SDS011;39307;52.870;13.660;2022-10-16T09:25:16;3.33;;;1.43;;
53411;SDS011;39307;52.870;13.660;2022-10-16T09:27:47;4.97;;;1.25;;
53411;SDS011;39307;52.870;13.660;2022-10-16T09:30:19;2.75;;;1.40;;
53411;SDS011;39307;52.870;13.660;2022-10-16T09:32:47;3.10;;;1.30;;
53411;SDS011;39307;52.870;13.660;2022-10-16T09:35:19;3.07;;;1.50;;
53411;SDS011;39307;52.870;13.660;2022-10-16T09:37:49;2.53;;;1.30;;
53411;SDS011;39307;52.870;13.660;2022-10-16T09:40:24;3.55;;;1.42;;
53411;SDS011;39307;52.870;13.660;2022-10-16T09:43:12;3.55;;;1.27;;
53411;SDS011;39307;52.870;13.660;2022-10-16T09:45:41;2.70;;;1.30;;
53411;SDS011;39307;52.870;13.660;2022-10-16T09:48:11;2.57;;;1.30;;
53411;SDS011;39307;52.870;13.660;2022-10-16T09:50:38;3.13;;;1.15;;
53411;SDS011;39307;52.870;13.660;2022-10-16T09:53:11;3.85;;;1.58;;
53411;SDS011;39307;52.870;13.660;2022-10-16T09:55:48;3.53;;;1.35;;
53411;SDS011;39307;52.870;13.660;2022-10-16T09:58:22;3.80;;;1.35;;
53411;SDS011;39307;52.870;13.660;2022-10-16T10:00:49;4.70;;;1.20;;
53411;SDS011;39307;52.870;13.660;2022-10-16T10:03:32;2.85;;;1.30;;
53411;SDS011;39307;52.870;13.660;2022-10-16T10:06:06;3.58;;;1.40;;
53411;SDS011;39307;52.870;13.660;2022-10-16T10:08:54;2.97;;;1.33;;
53411;SDS011;39307;52.870;13.660;2022-10-16T10:14:23;4.32;;;1.70;;
53411;SDS011;39307;52.870;13.660;2022-10-16T10:17:14;4.40;;;1.30;;
53411;SDS011;39307;52.870;13.660;2022-10-16T10:22:31;4.50;;;1.63;;
53411;SDS011;39307;52.870;13.660;2022-10-16T10:30:56;3.80;;;1.42;;
53411;SDS011;39307;52.870;13.660;2022-10-16T10:33:44;3.93;;;1.33;;
53411;SDS011;39307;52.870;13.660;2022-10-16T10:36:34;4.10;;;1.60;;
53411;SDS011;39307;52.870;13.660;2022-10-16T10:42:25;2.90;;;1.20;;
53411;SDS011;39307;52.870;13.660;2022-10-16T10:45:24;3.28;;;1.13;;
53411;SDS011;39307;52.870;13.660;2022-10-16T10:48:06;3.22;;;1.30;;
53411;SDS011;39307;52.870;13.660;2022-10-16T10:54:14;2.78;;;1.20;;
53411;SDS011;39307;52.870;13.660;2022-10-16T10:56:47;2.70;;;1.30;;
53411;SDS011;39307;52.870;13.660;2022-10-16T10:59:42;3.22;;;1.20;;
53411;SDS011;39307;52.870;13.660;2022-10-16T11:02:37;4.03;;;1.50;;
53411;SDS011;39307;52.870;13.660;2022-10-16T11:06:14;3.45;;;1.10;;
53411;SDS011;39307;52.870;13.660;2022-10-16T11:16:38;4.10;;;1.20;;
53411;SDS011;39307;52.870;13.660;2022-10-16T11:19:12;2.58;;;1.10;;
53411;SDS011;39307;52.870;13.660;2022-10-16T11:21:43;2.38;;;1.00;;
53411;SDS011;39307;52.870;13.660;2022-10-16T11:24:19;3.72;;;1.10;;
53411;SDS011;39307;52.870;13.660;2022-10-16T11:26:50;3.95;;;1.15;;
53411;SDS011;39307;52.870;13.660;2022-10-16T11:29:22;2.75;;;1.10;;
53411;SDS011;39307;52.870;13.660;2022-10-16T11:31:56;2.45;;;0.80;;
53411;SDS011;39307;52.870;13.660;2022-10-16T11:34:44;5.47;;;1.30;;
53411;SDS011;39307;52.870;13.660;2022-10-16T11:37:19;2.13;;;0.98;;
53411;SDS011;39307;52.870;13.660;2022-10-16T11:39:54;4.30;;;1.17;;
53411;SDS011;39307;52.870;13.660;2022-10-16T11:42:37;2.45;;;1.10;;
53411;SDS011;39307;52.870;13.660;2022-10-16T11:48:30;3.37;;;1.10;;
53411;SDS011;39307;52.870;13.660;2022-10-16T11:51:25;1.95;;;0.82;;
53411;SDS011;39307;52.870;13.660;2022-10-16T11:54:21;4.55;;;1.02;;
53411;SDS011;39307;52.870;13.660;2022-10-16T11:57:00;1.90;;;0.70;;
53411;SDS011;39307;52.870;13.660;2022-10-16T11:59:55;2.17;;;0.80;;
53411;SDS011;39307;52.870;13.660;2022-10-16T12:08:12;3.40;;;0.98;;
53411;SDS011;39307;52.870;13.660;2022-10-16T12:10:40;2.28;;;1.17;;
53411;SDS011;39307;52.870;13.660;2022-10-16T12:16:39;2.53;;;1.00;;
53411;SDS011;39307;52.870;13.660;2022-10-16T12:18:41;2.92;;;1.05;;
53411;SDS011;39307;52.870;13.660;2022-10-16T12:21:09;4.03;;;1.13;;
53411;SDS011;39307;52.870;13.660;2022-10-16T12:23:38;2.30;;;1.00;;
53411;SDS011;39307;52.870;13.660;2022-10-16T12:26:23;1.98;;;0.85;;
53411;SDS011;39307;52.870;13.660;2022-10-16T12:28:52;4.57;;;0.80;;
53411;SDS011;39307;52.870;13.660;2022-10-16T12:31:19;2.88;;;1.00;;
53411;SDS011;39307;52.870;13.660;2022-10-16T12:33:57;2.10;;;0.90;;
53411;SDS011;39307;52.870;13.660;2022-10-16T12:36:31;3.38;;;1.10;;
53411;SDS011;39307;52.870;13.660;2022-10-16T12:38:59;2.95;;;1.13;;
53411;SDS011;39307;52.870;13.660;2022-10-16T12:41:27;2.05;;;0.80;;
53411;SDS011;39307;52.870;13.660;2022-10-16T12:43:54;3.00;;;1.08;;
53411;SDS011;39307;52.870;13.660;2022-10-16T12:46:33;2.58;;;1.10;;
53411;SDS011;39307;52.870;13.660;2022-10-16T12:49:20;2.23;;;0.90;;
53411;SDS011;39307;52.870;13.660;2022-10-16T12:51:55;3.75;;;1.10;;
53411;SDS011;39307;52.870;13.660;2022-10-16T12:54:40;3.25;;;1.10;;
53411;SDS011;39307;52.870;13.660;2022-10-16T12:57:09;2.88;;;1.15;;
53411;SDS011;39307;52.870;13.660;2022-10-16T13:00:13;3.67;;;1.20;;
53411;SDS011;39307;52.870;13.660;2022-10-16T13:11:13;4.83;;;1.23;;
53411;SDS011;39307;52.870;13.660;2022-10-16T13:22:35;2.63;;;0.90;;
53411;SDS011;39307;52.870;13.660;2022-10-16T13:28:01;3.50;;;0.80;;
53411;SDS011;39307;52.870;13.660;2022-10-16T13:30:29;2.92;;;0.70;;
53411;SDS011;39307;52.870;13.660;2022-10-16T13:33:48;5.23;;;0.67;;
53411;SDS011;39307;52.870;13.660;2022-10-16T13:36:00;1.88;;;0.50;;
53411;SDS011;39307;52.870;13.660;2022-10-16T13:38:29;1.30;;;0.50;;
53411;SDS011;39307;52.870;13.660;2022-10-16T13:41:01;1.15;;;0.45;;
53411;SDS011;39307;52.870;13.660;2022-10-16T13:43:43;1.85;;;0.40;;
53411;SDS011;39307;52.870;13.660;2022-10-16T13:48:42;1.40;;;0.47;;
53411;SDS011;39307;52.870;13.660;2022-10-16T13:51:13;3.88;;;0.60;;
53411;SDS011;39307;52.870;13.660;2022-10-16T13:53:41;1.30;;;0.40;;
53411;SDS011;39307;52.870;13.660;2022-10-16T13:56:11;3.40;;;0.68;;
53411;SDS011;39307;52.870;13.660;2022-10-16T13:58:40;3.70;;;0.50;;
53411;SDS011;39307;52.870;13.660;2022-10-16T14:03:48;1.05;;;0.40;;
53411;SDS011;39307;52.870;13.660;2022-10-16T14:06:19;0.70;;;0.30;;
53411;SDS011;39307;52.870;13.660;2022-10-16T14:08:48;1.02;;;0.32;;
53411;SDS011;39307;52.870;13.660;2022-10-16T14:11:25;1.08;;;0.30;;
53411;SDS011;39307;52.870;13.660;2022-10-16T14:13:51;2.17;;;0.35;;
53411;SDS011;39307;52.870;13.660;2022-10-16T14:16:20;1.83;;;0.40;;
53411;SDS011;39307;52.870;13.660;2022-10-16T14:18:56;0.70;;;0.30;;
53411;SDS011;39307;52.870;13.660;2022-10-16T14:21:26;1.67;;;0.40;;
53411;SDS011;39307;52.870;13.660;2022-10-16T14:23:53;2.90;;;0.40;;
53411;SDS011;39307;52.870;13.660;2022-10-16T14:26:20;1.75;;;0.43;;
53411;SDS011;39307;52.870;13.660;2022-10-16T14:29:00;1.17;;;0.40;;
53411;SDS011;39307;52.870;13.660;2022-10-16T14:31:36;2.05;;;0.40;;
53411;SDS011;39307;52.870;13.660;2022-10-16T14:34:03;2.90;;;0.50;;
53411;SDS011;39307;52.870;13.660;2022-10-16T14:36:29;1.60;;;0.55;;
53411;SDS011;39307;52.870;13.660;2022-10-16T14:39:06;1.80;;;0.77;;
53411;SDS011;39307;52.870;13.660;2022-10-16T14:41:46;2.60;;;0.47;;
53411;SDS011;39307;52.870;13.660;2022-10-16T14:44:17;2.08;;;0.50;;
53411;SDS011;39307;52.870;13.660;2022-10-16T14:46:45;1.52;;;0.50;;
53411;SDS011;39307;52.870;13.660;2022-10-16T14:51:38;3.70;;;0.50;;
53411;SDS011;39307;52.870;13.660;2022-10-16T14:54:07;1.17;;;0.40;;
53411;SDS011;39307;52.870;13.660;2022-10-16T14:56:45;1.45;;;0.40;;
53411;SDS011;39307;52.870;13.660;2022-10-16T14:59:35;2.92;;;0.50;;
53411;SDS011;39307;52.870;13.660;2022-10-16T15:05:02;2.67;;;0.40;;
53411;SDS011;39307;52.870;13.660;2022-10-16T15:07:39;2.03;;;0.40;;
53411;SDS011;39307;52.870;13.660;2022-10-16T15:10:06;2.93;;;0.30;;
53411;SDS011;39307;52.870;13.660;2022-10-16T15:12:32;1.73;;;0.40;;
53411;SDS011;39307;52.870;13.660;2022-10-16T15:14:58;1.23;;;0.32;;
53411;SDS011;39307;52.870;13.660;2022-10-16T15:17:25;1.30;;;0.32;;
53411;SDS011;39307;52.870;13.660;2022-10-16T15:19:51;2.55;;;0.63;;
53411;SDS011;39307;52.870;13.660;2022-10-16T15:22:18;2.13;;;0.50;;
53411;SDS011;39307;52.870;13.660;2022-10-16T15:24:44;3.22;;;0.93;;
53411;SDS011;39307;52.870;13.660;2022-10-16T15:27:10;3.37;;;1.20;;
53411;SDS011;39307;52.870;13.660;2022-10-16T15:29:36;2.37;;;0.90;;
53411;SDS011;39307;52.870;13.660;2022-10-16T15:32:02;2.77;;;0.97;;
53411;SDS011;39307;52.870;13.660;2022-10-16T15:34:28;3.43;;;0.80;;
53411;SDS011;39307;52.870;13.660;2022-10-16T15:36:55;4.03;;;0.83;;
53411;SDS011;39307;52.870;13.660;2022-10-16T15:39:21;4.63;;;0.90;;
53411;SDS011;39307;52.870;13.660;2022-10-16T15:41:47;3.35;;;0.65;;
53411;SDS011;39307;52.870;13.660;2022-10-16T15:44:13;2.60;;;0.88;;
53411;SDS011;39307;52.870;13.660;2022-10-16T15:46:40;2.80;;;0.65;;
53411;SDS011;39307;52.870;13.660;2022-10-16T15:49:06;2.55;;;0.80;;
53411;SDS011;39307;52.870;13.660;2022-10-16T15:51:34;3.58;;;1.00;;
53411;SDS011;39307;52.870;13.660;2022-10-16T15:54:04;2.53;;;0.75;;
53411;SDS011;39307;52.870;13.660;2022-10-16T15:56:31;2.83;;;0.90;;
53411;SDS011;39307;52.870;13.660;2022-10-16T15:58:57;2.83;;;1.00;;
53411;SDS011;39307;52.870;13.660;2022-10-16T16:01:23;4.65;;;0.93;;
53411;SDS011;39307;52.870;13.660;2022-10-16T16:03:52;6.35;;;1.02;;
53411;SDS011;39307;52.870;13.660;2022-10-16T16:06:19;4.57;;;0.95;;
53411;SDS011;39307;52.870;13.660;2022-10-16T16:08:46;4.03;;;0.85;;
53411;SDS011;39307;52.870;13.660;2022-10-16T16:11:13;2.67;;;0.80;;
53411;SDS011;39307;52.870;13.660;2022-10-16T16:13:40;3.40;;;1.00;;
53411;SDS011;39307;52.870;13.660;2022-10-16T16:16:11;2.47;;;1.00;;
53411;SDS011;39307;52.870;13.660;2022-10-16T16:18:39;4.43;;;1.90;;
53411;SDS011;39307;52.870;13.660;2022-10-16T16:21:06;7.97;;;4.90;;
53411;SDS011;39307;52.870;13.660;2022-10-16T16:23:32;8.43;;;5.85;;
53411;SDS011;39307;52.870;13.660;2022-10-16T16:26:05;8.30;;;5.18;;
53411;SDS011;39307;52.870;13.660;2022-10-16T16:28:35;8.95;;;4.03;;
53411;SDS011;39307;52.870;13.660;2022-10-16T16:31:01;10.77;;;3.63;;
53411;SDS011;39307;52.870;13.660;2022-10-16T16:33:28;7.95;;;3.85;;